Time;durP1;ratioP1;P1;durP2;ratioP2;P2;SDS_P1;SDS_P2;PMS_P1;PMS_P2;Temp;Humidity;BMP_temperature;BMP_pressure;BME280_temperature;BME280_humidity;BME280_pressure;Samples;Min_cycle;Max_cycle;Signal;HPM_P1;HPM_P2
2021/07/29 00:01:29;;;;;;;;;;;18.70;90.20;;;;;;4346721;32;44564;-89
2021/07/29 00:03:59;;;;;;;;;;;18.70;90.20;;;;;;4359471;33;45000;-87
2021/07/29 00:06:34;;;;;;;;;;;18.70;90.30;;;;;;4349419;32;42699;-87
2021/07/29 00:09:02;;;;;;;;;;;18.70;90.30;;;;;;4363104;32;44513;-87
2021/07/29 00:11:32;;;;;;;;;;;18.70;90.40;;;;;;4363131;32;43422;-87
2021/07/29 00:14:01;;;;;;;;;;;18.70;90.40;;;;;;4361533;32;43598;-86
2021/07/29 00:16:32;;;;;;;;;;;18.60;90.40;;;;;;4349554;32;45322;-88
2021/07/29 00:19:04;;;;;;;;;;;18.70;90.50;;;;;;4363031;32;43868;-89
2021/07/29 00:21:35;;;;;;;;;;;18.60;90.50;;;;;;4362903;32;45904;-86
2021/07/29 00:24:10;;;;;;;;;;;18.60;90.50;;;;;;4362490;32;42592;-86
2021/07/29 00:26:39;;;;;;;;;;;18.60;90.60;;;;;;4362696;32;44618;-85
2021/07/29 00:29:06;;;;;;;;;;;18.50;90.70;;;;;;4361674;32;44187;-85
2021/07/29 00:31:36;;;;;;;;;;;18.50;90.70;;;;;;4349077;32;45565;-84
2021/07/29 00:34:04;;;;;;;;;;;18.50;90.70;;;;;;4361263;32;46212;-86
2021/07/29 00:36:34;;;;;;;;;;;18.50;90.80;;;;;;4360901;32;43247;-85
2021/07/29 00:39:07;;;;;;;;;;;18.40;90.80;;;;;;4348791;32;44809;-86
2021/07/29 00:41:34;;;;;;;;;;;18.40;90.90;;;;;;4348615;32;45800;-86
2021/07/29 00:44:04;;;;;;;;;;;18.40;91.00;;;;;;4348950;32;44483;-85
2021/07/29 00:46:37;;;;;;;;;;;18.40;91.10;;;;;;4361158;32;43858;-85
2021/07/29 00:49:10;;;;;;;;;;;18.30;91.10;;;;;;4348894;32;46054;-83
2021/07/29 00:51:40;;;;;;;;;;;18.30;91.20;;;;;;4360715;32;43379;-84
2021/07/29 00:54:07;;;;;;;;;;;18.30;91.20;;;;;;4348352;32;43485;-84
2021/07/29 00:56:35;;;;;;;;;;;18.30;91.20;;;;;;4361737;32;42521;-85
2021/07/29 00:59:07;;;;;;;;;;;18.30;91.20;;;;;;4348483;32;44693;-82
2021/07/29 01:01:37;;;;;;;;;;;18.30;91.20;;;;;;4360903;32;44380;-86
2021/07/29 01:04:04;;;;;;;;;;;18.30;91.30;;;;;;4349041;32;43501;-86
2021/07/29 01:06:35;;;;;;;;;;;18.30;91.30;;;;;;4348877;32;44488;-89
2021/07/29 01:09:09;;;;;;;;;;;18.20;91.40;;;;;;4361882;32;43645;-85
2021/07/29 01:11:36;;;;;;;;;;;18.20;91.40;;;;;;4360955;32;44755;-85
2021/07/29 01:14:09;;;;;;;;;;;18.10;91.40;;;;;;4362105;32;45689;-86
2021/07/29 01:16:37;;;;;;;;;;;18.20;91.40;;;;;;4360841;32;44783;-86
2021/07/29 01:19:08;;;;;;;;;;;18.20;91.40;;;;;;4360930;32;44965;-84
2021/07/29 01:21:53;;;;;;;;;;;18.20;91.40;;;;;;4360905;32;45512;-87
2021/07/29 01:24:21;;;;;;;;;;;18.20;91.50;;;;;;4360391;32;42836;-85
2021/07/29 01:26:51;;;;;;;;;;;18.20;91.50;;;;;;4348490;32;44012;-83
2021/07/29 01:29:20;;;;;;;;;;;18.10;91.40;;;;;;4361277;32;44119;-86
2021/07/29 01:31:50;;;;;;;;;;;18.20;91.50;;;;;;4361470;32;43478;-85
2021/07/29 01:34:21;;;;;;;;;;;18.20;91.40;;;;;;4361631;32;44752;-87
2021/07/29 01:36:50;;;;;;;;;;;18.20;91.40;;;;;;4347645;32;45203;-85
2021/07/29 01:39:18;;;;;;;;;;;18.20;91.40;;;;;;4361655;32;46318;-86
2021/07/29 01:41:45;;;;;;;;;;;18.20;91.40;;;;;;4347969;32;43899;-87
2021/07/29 01:44:20;;;;;;;;;;;18.20;91.40;;;;;;4348544;32;44739;-86
2021/07/29 01:46:47;;;;;;;;;;;18.10;91.80;;;;;;4360870;32;44152;-88
2021/07/29 01:49:22;;;;;;;;;;;18.10;91.40;;;;;;4348320;32;44643;-87
2021/07/29 01:51:49;;;;;;;;;;;18.10;91.40;;;;;;4348418;32;45170;-87
2021/07/29 01:54:21;;;;;;;;;;;18.10;91.50;;;;;;4347896;32;45661;-87
2021/07/29 01:56:51;;;;;;;;;;;18.10;91.50;;;;;;4360880;32;19993;-89
2021/07/29 01:59:21;;;;;;;;;;;18.10;91.40;;;;;;4360249;32;43478;-86
2021/07/29 02:01:54;;;;;;;;;;;18.10;91.40;;;;;;4347602;32;43292;-87
2021/07/29 02:04:28;;;;;;;;;;;18.10;91.40;;;;;;4360516;32;44150;-86
2021/07/29 02:06:57;;;;;;;;;;;18.10;91.40;;;;;;4348265;32;45902;-88
2021/07/29 02:09:25;;;;;;;;;;;18.10;91.40;;;;;;4347827;32;44676;-87
2021/07/29 02:11:52;;;;;;;;;;;18.10;91.40;;;;;;4347284;32;44710;-86
2021/07/29 02:14:24;;;;;;;;;;;18.10;91.40;;;;;;4359997;32;45689;-86
2021/07/29 02:16:51;;;;;;;;;;;18.10;91.30;;;;;;4347619;32;45073;-87
2021/07/29 02:19:18;;;;;;;;;;;18.10;91.40;;;;;;4359557;32;44294;-87
2021/07/29 02:21:51;;;;;;;;;;;18.00;91.30;;;;;;4347457;32;44447;-87
2021/07/29 02:24:18;;;;;;;;;;;18.00;91.30;;;;;;4359832;32;42766;-86
2021/07/29 02:26:45;;;;;;;;;;;18.00;91.40;;;;;;4347663;32;43299;-84
2021/07/29 02:29:21;;;;;;;;;;;17.90;91.30;;;;;;4358764;32;43474;-86
2021/07/29 02:31:50;;;;;;;;;;;17.90;91.40;;;;;;4359451;32;44891;-86
2021/07/29 02:34:23;;;;;;;;;;;17.90;91.40;;;;;;4347547;32;45053;-88
2021/07/29 02:36:50;;;;;;;;;;;17.80;91.40;;;;;;4359722;32;44430;-87
2021/07/29 02:39:20;;;;;;;;;;;17.80;91.40;;;;;;4347510;32;45791;-87
2021/07/29 02:41:48;;;;;;;;;;;17.80;91.40;;;;;;4361081;32;43121;-89
2021/07/29 02:44:18;;;;;;;;;;;17.70;91.40;;;;;;4360727;32;44988;-87
2021/07/29 02:46:45;;;;;;;;;;;17.70;91.50;;;;;;4360905;32;44000;-87
2021/07/29 02:49:15;;;;;;;;;;;17.70;91.50;;;;;;4346794;32;46091;-87
2021/07/29 02:51:42;;;;;;;;;;;17.70;91.50;;;;;;4347110;32;44768;-90
2021/07/29 02:54:15;;;;;;;;;;;17.70;91.50;;;;;;4359317;32;44443;-85
2021/07/29 02:56:48;;;;;;;;;;;17.60;91.50;;;;;;4347265;32;44695;-86
2021/07/29 02:59:18;;;;;;;;;;;17.60;91.50;;;;;;4360814;32;43606;-87
2021/07/29 03:01:45;;;;;;;;;;;17.60;91.50;;;;;;4346834;32;43796;-86
2021/07/29 03:04:12;;;;;;;;;;;17.60;91.50;;;;;;4359390;32;44817;-87
2021/07/29 03:06:48;;;;;;;;;;;17.60;91.50;;;;;;4346888;32;44769;-84
2021/07/29 03:09:15;;;;;;;;;;;17.60;91.50;;;;;;4359338;32;44376;-88
2021/07/29 03:11:45;;;;;;;;;;;17.50;91.50;;;;;;4346982;32;44315;-84
2021/07/29 03:14:16;;;;;;;;;;;17.50;91.50;;;;;;4359381;32;44343;-86
2021/07/29 03:16:46;;;;;;;;;;;17.50;91.60;;;;;;4360180;32;44803;-87
2021/07/29 03:19:16;;;;;;;;;;;17.50;91.60;;;;;;4347046;32;42835;-87
2021/07/29 03:21:43;;;;;;;;;;;17.50;91.70;;;;;;4358634;32;45526;-87
2021/07/29 03:24:13;;;;;;;;;;;17.50;91.70;;;;;;4346622;32;45933;-87
2021/07/29 03:26:42;;;;;;;;;;;17.50;91.70;;;;;;4359276;32;43821;-87
2021/07/29 03:29:09;;;;;;;;;;;17.50;91.70;;;;;;4347441;32;20377;-87
2021/07/29 03:31:39;;;;;;;;;;;17.50;91.70;;;;;;4358620;32;44881;-88
2021/07/29 03:34:06;;;;;;;;;;;17.40;91.60;;;;;;4359209;32;45244;-89
2021/07/29 03:36:33;;;;;;;;;;;17.40;91.60;;;;;;4360408;32;43961;-91
2021/07/29 03:39:05;;;;;;;;;;;17.40;91.70;;;;;;4359575;33;44731;-88
2021/07/29 03:41:34;;;;;;;;;;;17.40;91.70;;;;;;4350384;32;45193;-92
2021/07/29 03:44:05;;;;;;;;;;;17.40;91.80;;;;;;4364573;32;44650;-90
2021/07/29 03:46:35;;;;;;;;;;;17.40;91.80;;;;;;4352083;32;45120;-90
2021/07/29 03:49:02;;;;;;;;;;;17.30;91.70;;;;;;4364863;32;44043;-89
2021/07/29 03:51:29;;;;;;;;;;;17.40;91.80;;;;;;4364063;32;44578;-89
2021/07/29 03:53:58;;;;;;;;;;;17.40;91.80;;;;;;4351788;32;44817;-91
2021/07/29 03:56:25;;;;;;;;;;;17.40;91.80;;;;;;4364330;32;44362;-87
2021/07/29 03:58:52;;;;;;;;;;;17.30;91.80;;;;;;4351784;32;44694;-90
2021/07/29 04:01:21;;;;;;;;;;;17.30;91.80;;;;;;4365483;32;45729;-93
2021/07/29 04:03:51;;;;;;;;;;;17.30;91.80;;;;;;4365319;32;44775;-91
2021/07/29 04:06:21;;;;;;;;;;;17.30;91.70;;;;;;4364382;32;43540;-90
2021/07/29 04:08:54;;;;;;;;;;;17.30;91.80;;;;;;4364622;32;44008;-88
2021/07/29 04:11:24;;;;;;;;;;;17.40;91.80;;;;;;4364758;32;45238;-91
2021/07/29 04:13:54;;;;;;;;;;;17.30;91.80;;;;;;4365029;32;44894;-89
2021/07/29 04:16:21;;;;;;;;;;;17.30;91.70;;;;;;4365383;32;44635;-91
2021/07/29 04:18:49;;;;;;;;;;;17.30;91.70;;;;;;4364190;32;44399;-85
2021/07/29 04:21:16;;;;;;;;;;;17.40;91.70;;;;;;4352488;32;43290;-90
2021/07/29 04:23:45;;;;;;;;;;;17.40;91.80;;;;;;4365246;32;44256;-90
2021/07/29 04:26:15;;;;;;;;;;;17.30;91.70;;;;;;4351666;32;45717;-89
2021/07/29 04:28:43;;;;;;;;;;;17.30;91.70;;;;;;4364120;32;43505;-90
2021/07/29 04:31:10;;;;;;;;;;;17.30;91.70;;;;;;4352240;32;45837;-89
2021/07/29 04:33:41;;;;;;;;;;;17.30;91.80;;;;;;4364262;32;44261;-91
2021/07/29 04:36:08;;;;;;;;;;;17.30;91.70;;;;;;4364251;32;43591;-89
2021/07/29 04:38:38;;;;;;;;;;;17.30;91.70;;;;;;4364516;32;44359;-89
2021/07/29 04:41:08;;;;;;;;;;;17.30;91.70;;;;;;4364142;32;44711;-89
2021/07/29 04:43:40;;;;;;;;;;;17.30;91.70;;;;;;4351758;32;45591;-84
2021/07/29 04:46:10;;;;;;;;;;;17.30;91.70;;;;;;4364252;32;44988;-90
2021/07/29 04:48:37;;;;;;;;;;;17.30;91.70;;;;;;4351738;32;45483;-91
2021/07/29 04:51:05;;;;;;;;;;;17.20;91.70;;;;;;4363545;32;44544;-86
2021/07/29 04:53:38;;;;;;;;;;;17.30;91.80;;;;;;4362000;32;45109;-87
2021/07/29 04:56:08;;;;;;;;;;;17.20;92.10;;;;;;4362100;32;44190;-88
2021/07/29 04:58:38;;;;;;;;;;;17.20;91.80;;;;;;4348902;32;42545;-92
2021/07/29 05:01:05;;;;;;;;;;;17.20;91.80;;;;;;4362752;32;44782;-86
2021/07/29 05:03:32;;;;;;;;;;;17.20;91.80;;;;;;4361786;32;45240;-90
2021/07/29 05:06:00;;;;;;;;;;;17.20;91.80;;;;;;4348847;32;44643;-92
2021/07/29 05:08:31;;;;;;;;;;;17.20;91.80;;;;;;4361563;32;45174;-89
2021/07/29 05:10:58;;;;;;;;;;;17.20;91.70;;;;;;4349545;32;44879;-91
2021/07/29 05:13:30;;;;;;;;;;;17.20;91.80;;;;;;4361664;32;44924;-89
2021/07/29 05:15:59;;;;;;;;;;;17.20;91.80;;;;;;4362550;32;44191;-91
2021/07/29 05:18:26;;;;;;;;;;;17.20;91.80;;;;;;4349536;32;45472;-89
2021/07/29 05:20:58;;;;;;;;;;;17.20;91.90;;;;;;4361149;32;43498;-87
2021/07/29 05:23:28;;;;;;;;;;;17.20;91.80;;;;;;4349223;32;44438;-90
2021/07/29 05:26:01;;;;;;;;;;;17.10;91.80;;;;;;4360915;32;45958;-88
2021/07/29 05:28:31;;;;;;;;;;;17.20;91.90;;;;;;4361750;32;44748;-89
2021/07/29 05:31:03;;;;;;;;;;;17.20;91.90;;;;;;4362532;32;20413;-87
2021/07/29 05:33:33;;;;;;;;;;;17.20;91.90;;;;;;4348961;32;43442;-83
2021/07/29 05:36:04;;;;;;;;;;;17.10;91.90;;;;;;4360864;32;45681;-87
2021/07/29 05:38:34;;;;;;;;;;;17.10;91.90;;;;;;4361921;32;44208;-90
2021/07/29 05:41:08;;;;;;;;;;;17.10;91.90;;;;;;4360840;32;44155;-89
2021/07/29 05:43:39;;;;;;;;;;;17.10;91.90;;;;;;4361102;32;44244;-90
2021/07/29 05:46:09;;;;;;;;;;;17.10;92.00;;;;;;4360332;32;44892;-90
2021/07/29 05:48:37;;;;;;;;;;;17.10;92.00;;;;;;4361132;32;43486;-89
2021/07/29 05:51:07;;;;;;;;;;;17.10;92.00;;;;;;4360443;32;43848;-88
2021/07/29 05:53:34;;;;;;;;;;;17.10;92.00;;;;;;4360499;32;45701;-92
2021/07/29 05:56:06;;;;;;;;;;;17.10;92.00;;;;;;4348406;32;44804;-87
2021/07/29 05:58:39;;;;;;;;;;;17.10;92.00;;;;;;4361620;32;44361;-93
2021/07/29 06:01:07;;;;;;;;;;;17.10;92.10;;;;;;4362299;32;20045;-87
2021/07/29 06:03:38;;;;;;;;;;;17.00;92.10;;;;;;4360495;32;44191;-87
2021/07/29 06:06:10;;;;;;;;;;;17.10;92.20;;;;;;4360520;32;43966;-88
2021/07/29 06:08:38;;;;;;;;;;;17.00;92.10;;;;;;4348387;32;42771;-86
2021/07/29 06:11:05;;;;;;;;;;;17.00;92.20;;;;;;4360098;32;43960;-91
2021/07/29 06:13:38;;;;;;;;;;;17.00;92.20;;;;;;4361311;32;42923;-90
2021/07/29 06:16:10;;;;;;;;;;;17.00;92.20;;;;;;4360149;32;45505;-87
2021/07/29 06:18:48;;;;;;;;;;;16.90;92.20;;;;;;4360655;32;43132;-88
2021/07/29 06:21:20;;;;;;;;;;;17.00;92.20;;;;;;4361660;32;44167;-90
2021/07/29 06:23:54;;;;;;;;;;;17.00;92.20;;;;;;4359860;32;42905;-91
2021/07/29 06:26:33;;;;;;;;;;;17.00;92.30;;;;;;4348871;32;45947;-92
2021/07/29 06:29:03;;;;;;;;;;;16.90;92.20;;;;;;4360158;32;45890;-86
2021/07/29 06:31:35;;;;;;;;;;;17.00;92.30;;;;;;4348698;32;20521;-90
2021/07/29 06:34:11;;;;;;;;;;;17.00;92.20;;;;;;4360216;32;45924;-89
2021/07/29 06:36:38;;;;;;;;;;;17.00;92.30;;;;;;4347421;32;42775;-86
2021/07/29 06:39:05;;;;;;;;;;;17.00;92.30;;;;;;4360053;32;44394;-87
2021/07/29 06:41:39;;;;;;;;;;;17.00;92.30;;;;;;4347832;32;44399;-85
2021/07/29 06:44:09;;;;;;;;;;;16.90;92.30;;;;;;4359949;32;44220;-91
2021/07/29 06:46:37;;;;;;;;;;;17.00;92.40;;;;;;4359390;32;44586;-91
2021/07/29 06:49:10;;;;;;;;;;;16.90;92.30;;;;;;4360584;32;43437;-88
2021/07/29 06:51:42;;;;;;;;;;;16.90;92.40;;;;;;4359916;32;46112;-85
2021/07/29 06:54:12;;;;;;;;;;;16.90;92.40;;;;;;4360996;32;43385;-90
2021/07/29 06:56:39;;;;;;;;;;;16.90;92.40;;;;;;4359726;32;45905;-93
2021/07/29 06:59:06;;;;;;;;;;;16.90;92.40;;;;;;4347812;32;45743;-91
2021/07/29 07:01:36;;;;;;;;;;;16.90;92.40;;;;;;4361107;32;19989;-91
2021/07/29 07:04:07;;;;;;;;;;;16.90;92.40;;;;;;4359658;32;43034;-88
2021/07/29 07:06:34;;;;;;;;;;;16.90;92.40;;;;;;4360630;32;45797;-90
2021/07/29 07:09:06;;;;;;;;;;;16.90;92.40;;;;;;4360199;32;43909;-91
2021/07/29 07:11:37;;;;;;;;;;;17.00;92.40;;;;;;4359477;32;42722;-87
2021/07/29 07:14:06;;;;;;;;;;;17.00;92.30;;;;;;4347417;32;42807;-94
2021/07/29 07:16:33;;;;;;;;;;;17.00;92.30;;;;;;4360900;32;44764;-89
2021/07/29 07:19:09;;;;;;;;;;;17.00;92.30;;;;;;4359809;32;43202;-90
2021/07/29 07:21:39;;;;;;;;;;;17.00;92.20;;;;;;4347364;32;43153;-88
2021/07/29 07:24:09;;;;;;;;;;;17.00;92.20;;;;;;4359520;32;44884;-89
2021/07/29 07:26:41;;;;;;;;;;;17.00;92.20;;;;;;4347082;32;44783;-89
2021/07/29 07:29:14;;;;;;;;;;;17.00;92.10;;;;;;4359940;32;44176;-91
2021/07/29 07:31:41;;;;;;;;;;;17.00;92.20;;;;;;4347857;32;20016;-92
2021/07/29 07:34:14;;;;;;;;;;;17.00;92.10;;;;;;4359330;32;45149;-91
2021/07/29 07:36:46;;;;;;;;;;;17.00;92.10;;;;;;4346768;32;42519;-91
2021/07/29 07:39:16;;;;;;;;;;;17.00;92.10;;;;;;4359576;33;42785;-88
2021/07/29 07:41:43;;;;;;;;;;;17.00;92.10;;;;;;4359817;33;44208;-90
2021/07/29 07:44:19;;;;;;;;;;;17.00;92.00;;;;;;4347301;33;43449;-87
2021/07/29 07:46:46;;;;;;;;;;;17.00;92.00;;;;;;4360831;33;44148;-91
2021/07/29 07:49:16;;;;;;;;;;;17.00;92.00;;;;;;4347146;33;44799;-87
2021/07/29 07:51:44;;;;;;;;;;;17.00;92.00;;;;;;4358894;33;45799;-89
2021/07/29 07:54:17;;;;;;;;;;;17.00;92.00;;;;;;4359570;33;42808;-88
2021/07/29 07:56:45;;;;;;;;;;;17.00;91.90;;;;;;4346944;33;44897;-92
2021/07/29 07:59:13;;;;;;;;;;;17.00;91.90;;;;;;4359055;33;44697;-87
2021/07/29 08:01:44;;;;;;;;;;;17.00;91.90;;;;;;4347887;32;22330;-91
2021/07/29 08:04:20;;;;;;;;;;;17.00;91.80;;;;;;4359361;33;43564;-90
2021/07/29 08:06:56;;;;;;;;;;;17.00;91.80;;;;;;4347894;33;44797;-84
2021/07/29 08:09:23;;;;;;;;;;;17.10;91.90;;;;;;4360931;33;44895;-89
2021/07/29 08:11:54;;;;;;;;;;;17.00;91.80;;;;;;4346648;33;45799;-89
2021/07/29 08:14:24;;;;;;;;;;;17.10;91.80;;;;;;4359018;33;44800;-88
2021/07/29 08:16:54;;;;;;;;;;;17.10;91.90;;;;;;4346951;33;45671;-87
2021/07/29 08:19:27;;;;;;;;;;;17.10;91.80;;;;;;4360237;33;45946;-88
2021/07/29 08:22:00;;;;;;;;;;;17.10;91.80;;;;;;4347536;33;44393;-89
2021/07/29 08:24:28;;;;;;;;;;;17.10;91.80;;;;;;4360009;33;45498;-86
2021/07/29 08:27:00;;;;;;;;;;;17.10;91.80;;;;;;4359685;32;44034;-85
2021/07/29 08:29:30;;;;;;;;;;;17.20;91.80;;;;;;4349533;32;45014;-87
2021/07/29 08:31:58;;;;;;;;;;;17.20;91.70;;;;;;4362926;32;20001;-89
2021/07/29 08:34:26;;;;;;;;;;;17.20;91.70;;;;;;4349582;32;42959;-90
2021/07/29 08:36:53;;;;;;;;;;;17.20;91.70;;;;;;4361628;32;45207;-91
2021/07/29 08:39:23;;;;;;;;;;;17.20;91.40;;;;;;4361181;32;43302;-91
2021/07/29 08:41:51;;;;;;;;;;;17.20;91.50;;;;;;4348949;32;43413;-88
2021/07/29 08:44:18;;;;;;;;;;;17.20;91.50;;;;;;4361333;32;44009;-86
2021/07/29 08:46:50;;;;;;;;;;;17.20;91.50;;;;;;4349393;32;44269;-88
2021/07/29 08:49:26;;;;;;;;;;;17.20;91.40;;;;;;4361341;32;44218;-91
2021/07/29 08:51:53;;;;;;;;;;;17.20;91.40;;;;;;4362036;32;44032;-88
2021/07/29 08:54:21;;;;;;;;;;;17.20;91.40;;;;;;4348858;32;44895;-88
2021/07/29 08:56:48;;;;;;;;;;;17.20;91.40;;;;;;4360859;32;42956;-88
2021/07/29 08:59:18;;;;;;;;;;;17.30;91.40;;;;;;4348558;32;44115;-87
2021/07/29 09:01:55;;;;;;;;;;;17.30;91.40;;;;;;4361137;32;43135;-91
2021/07/29 09:04:22;;;;;;;;;;;17.30;91.30;;;;;;4362183;32;42665;-91
2021/07/29 09:06:53;;;;;;;;;;;17.30;91.30;;;;;;4361510;32;43160;-93
2021/07/29 09:09:42;;;;;;;;;;;17.30;91.20;;;;;;4349961;32;44559;-89
2021/07/29 09:12:17;;;;;;;;;;;17.30;91.20;;;;;;4349456;32;44756;-89
2021/07/29 09:14:45;;;;;;;;;;;17.30;91.10;;;;;;4361612;32;45134;-85
2021/07/29 09:17:15;;;;;;;;;;;17.40;90.90;;;;;;4362421;32;43903;-86
2021/07/29 09:19:44;;;;;;;;;;;17.40;90.80;;;;;;4361081;32;43288;-88
2021/07/29 09:22:14;;;;;;;;;;;17.40;90.90;;;;;;4348479;32;44786;-88
2021/07/29 09:25:11;;;;;;;;;;;17.40;90.90;;;;;;4348201;32;45172;-89
2021/07/29 09:27:38;;;;;;;;;;;17.40;90.70;;;;;;4351408;32;45015;-86
2021/07/29 09:30:11;;;;;;;;;;;17.50;90.90;;;;;;4348303;32;45625;-94
2021/07/29 09:32:59;;;;;;;;;;;17.50;90.70;;;;;;4362695;32;20009;-93
2021/07/29 09:35:47;;;;;;;;;;;17.50;90.70;;;;;;4361734;32;43439;-88
2021/07/29 09:38:21;;;;;;;;;;;17.50;90.70;;;;;;4360182;32;44030;-87
2021/07/29 09:40:56;;;;;;;;;;;17.50;90.60;;;;;;4361679;32;44890;-87
2021/07/29 09:43:26;;;;;;;;;;;17.50;90.50;;;;;;4362202;32;42921;-92
2021/07/29 09:45:57;;;;;;;;;;;17.50;90.80;;;;;;4362302;32;43620;-89
2021/07/29 09:48:24;;;;;;;;;;;17.50;90.10;;;;;;4349232;32;44980;-90
2021/07/29 09:50:55;;;;;;;;;;;17.50;90.30;;;;;;4360759;32;43000;-89
2021/07/29 09:53:28;;;;;;;;;;;17.60;90.50;;;;;;4361085;32;44795;-89
2021/07/29 09:55:55;;;;;;;;;;;17.60;90.20;;;;;;4362028;32;45242;-92
2021/07/29 09:58:25;;;;;;;;;;;17.60;90.30;;;;;;4361992;32;44640;-90
2021/07/29 10:00:53;;;;;;;;;;;17.60;90.30;;;;;;4348158;32;42066;-89
2021/07/29 10:03:24;;;;;;;;;;;17.70;90.30;;;;;;4361309;32;20005;-88
2021/07/29 10:05:53;;;;;;;;;;;17.70;90.10;;;;;;4361787;32;43607;-91
2021/07/29 10:08:26;;;;;;;;;;;17.70;90.10;;;;;;4360152;32;44248;-88
2021/07/29 10:10:53;;;;;;;;;;;17.70;90.10;;;;;;4361556;32;42800;-89
2021/07/29 10:13:31;;;;;;;;;;;17.70;89.50;;;;;;4360982;32;44133;-91
2021/07/29 10:16:01;;;;;;;;;;;17.70;89.90;;;;;;4349078;32;46093;-93
2021/07/29 10:18:48;;;;;;;;;;;17.60;89.70;;;;;;4360722;32;43588;-93
2021/07/29 10:21:24;;;;;;;;;;;17.70;89.80;;;;;;4360745;32;45184;-88
2021/07/29 10:23:52;;;;;;;;;;;17.70;89.50;;;;;;4361852;32;44628;-90
2021/07/29 10:26:22;;;;;;;;;;;17.70;89.70;;;;;;4348088;32;42481;-92
2021/07/29 10:28:49;;;;;;;;;;;17.70;89.70;;;;;;4361276;32;43480;-86
2021/07/29 10:31:17;;;;;;;;;;;17.70;88.90;;;;;;4360359;32;43036;-88
2021/07/29 10:33:47;;;;;;;;;;;17.70;89.60;;;;;;4360946;32;20088;-93
2021/07/29 10:36:35;;;;;;;;;;;17.80;89.40;;;;;;4360919;32;44897;-92
2021/07/29 10:39:03;;;;;;;;;;;17.80;89.30;;;;;;4347868;32;43079;-88
2021/07/29 10:41:30;;;;;;;;;;;17.80;89.20;;;;;;4360476;32;43251;-86
2021/07/29 10:43:58;;;;;;;;;;;17.80;89.00;;;;;;4347992;32;43569;-94
2021/07/29 10:46:44;;;;;;;;;;;17.90;88.90;;;;;;4360760;32;45853;-87
2021/07/29 10:49:16;;;;;;;;;;;17.90;89.00;;;;;;4348076;32;44202;-91
2021/07/29 10:52:05;;;;;;;;;;;17.90;88.60;;;;;;4360200;32;43801;-92
2021/07/29 10:54:35;;;;;;;;;;;17.90;88.90;;;;;;4348320;32;44823;-92
2021/07/29 10:57:03;;;;;;;;;;;18.00;88.80;;;;;;4360480;32;44264;-92
2021/07/29 10:59:36;;;;;;;;;;;18.00;88.30;;;;;;4360663;32;44713;-87
2021/07/29 11:02:10;;;;;;;;;;;18.00;87.90;;;;;;4361103;32;43060;-90
2021/07/29 11:04:54;;;;;;;;;;;18.10;88.60;;;;;;4361110;32;44218;-91
2021/07/29 11:07:21;;;;;;;;;;;18.20;88.20;;;;;;4360971;32;42510;-92
2021/07/29 11:09:59;;;;;;;;;;;18.10;88.20;;;;;;4360069;32;43710;-93
2021/07/29 11:12:28;;;;;;;;;;;18.20;88.20;;;;;;4360118;32;46023;-90
2021/07/29 11:14:59;;;;;;;;;;;18.20;88.00;;;;;;4347996;32;44416;-85
2021/07/29 11:17:27;;;;;;;;;;;18.20;87.50;;;;;;4360721;32;43883;-86
2021/07/29 11:19:56;;;;;;;;;;;18.20;87.70;;;;;;4360682;32;44155;-87
2021/07/29 11:22:26;;;;;;;;;;;18.10;87.80;;;;;;4359591;32;42067;-93
2021/07/29 11:24:54;;;;;;;;;;;18.20;88.10;;;;;;4347955;32;43749;-92
2021/07/29 11:27:31;;;;;;;;;;;18.20;88.00;;;;;;4360556;32;44872;-95
2021/07/29 11:30:02;;;;;;;;;;;18.20;87.90;;;;;;4360036;32;45499;-91
2021/07/29 11:32:36;;;;;;;;;;;18.20;87.80;;;;;;4347200;32;45173;-85
2021/07/29 11:35:06;;;;;;;;;;;18.30;87.10;;;;;;4361574;32;20068;-87
2021/07/29 11:37:40;;;;;;;;;;;18.30;86.60;;;;;;4346924;32;45791;-91
2021/07/29 11:40:21;;;;;;;;;;;18.30;87.20;;;;;;4361206;32;43937;-85
2021/07/29 11:42:48;;;;;;;;;;;18.30;87.00;;;;;;4347946;33;44587;-93
2021/07/29 11:45:21;;;;;;;;;;;18.40;87.10;;;;;;4359880;33;45767;-92
2021/07/29 11:47:49;;;;;;;;;;;18.40;86.20;;;;;;4361011;33;43342;-91
2021/07/29 11:50:30;;;;;;;;;;;18.40;86.50;;;;;;4359350;33;44812;-93
2021/07/29 11:52:57;;;;;;;;;;;18.40;86.70;;;;;;4347275;33;42471;-94
2021/07/29 11:55:24;;;;;;;;;;;18.50;86.20;;;;;;4360171;33;43227;-93
2021/07/29 11:58:00;;;;;;;;;;;18.50;86.20;;;;;;4347620;33;43788;-92
2021/07/29 12:00:33;;;;;;;;;;;18.50;85.70;;;;;;4360749;33;43303;-92
2021/07/29 12:03:04;;;;;;;;;;;18.60;85.70;;;;;;4361469;32;44048;-89
2021/07/29 12:05:33;;;;;;;;;;;18.60;85.20;;;;;;4363671;32;20036;-93
2021/07/29 12:08:08;;;;;;;;;;;18.60;85.80;;;;;;4362623;32;44809;-94
2021/07/29 12:10:42;;;;;;;;;;;18.60;84.90;;;;;;4362944;32;44788;-91
2021/07/29 12:13:14;;;;;;;;;;;18.70;85.20;;;;;;4351061;32;44297;-86
2021/07/29 12:15:50;;;;;;;;;;;18.60;85.30;;;;;;4363416;32;45127;-93
2021/07/29 12:18:21;;;;;;;;;;;18.60;85.40;;;;;;4351055;32;44081;-87
2021/07/29 12:20:51;;;;;;;;;;;18.60;85.60;;;;;;4363889;32;44066;-91
2021/07/29 12:23:25;;;;;;;;;;;18.60;85.30;;;;;;4363760;32;45578;-94
2021/07/29 12:25:57;;;;;;;;;;;18.70;85.30;;;;;;4362346;32;45410;-87
2021/07/29 12:28:43;;;;;;;;;;;18.70;85.20;;;;;;4350435;32;43525;-93
2021/07/29 12:31:23;;;;;;;;;;;18.70;85.20;;;;;;4350731;32;44309;-91
2021/07/29 12:33:54;;;;;;;;;;;18.70;85.50;;;;;;4350051;32;45726;-90
2021/07/29 12:36:24;;;;;;;;;;;18.70;85.50;;;;;;4350387;32;20043;-93
2021/07/29 12:39:01;;;;;;;;;;;18.70;85.10;;;;;;4363113;32;44103;-94
2021/07/29 12:41:31;;;;;;;;;;;18.70;85.40;;;;;;4362678;32;43578;-92
2021/07/29 12:44:12;;;;;;;;;;;18.70;85.30;;;;;;4350412;32;43117;-93
2021/07/29 12:46:40;;;;;;;;;;;18.70;85.40;;;;;;4363410;32;45856;-91
2021/07/29 12:49:08;;;;;;;;;;;18.70;85.10;;;;;;4361509;32;44966;-90
2021/07/29 12:51:45;;;;;;;;;;;18.70;85.20;;;;;;4349816;32;42719;-90
2021/07/29 12:54:13;;;;;;;;;;;18.80;84.70;;;;;;4362751;32;44975;-91
2021/07/29 12:57:03;;;;;;;;;;;18.80;84.30;;;;;;4362068;32;44937;-93
2021/07/29 12:59:33;;;;;;;;;;;18.90;84.70;;;;;;4361646;32;43713;-90
2021/07/29 13:02:00;;;;;;;;;;;18.90;84.60;;;;;;4349131;32;43874;-90
2021/07/29 13:04:30;;;;;;;;;;;18.90;84.80;;;;;;4361779;32;44480;-89
2021/07/29 13:06:59;;;;;;;;;;;18.90;84.60;;;;;;4350459;32;20122;-93
2021/07/29 13:09:28;;;;;;;;;;;18.90;84.80;;;;;;4350014;32;43055;-89
2021/07/29 13:11:58;;;;;;;;;;;18.90;84.50;;;;;;4361364;32;44033;-89
2021/07/29 13:14:28;;;;;;;;;;;19.00;84.80;;;;;;4360863;32;44996;-91
2021/07/29 13:16:59;;;;;;;;;;;18.90;84.70;;;;;;4361017;32;45145;-88
2021/07/29 13:19:30;;;;;;;;;;;19.00;84.70;;;;;;4362358;32;43479;-87
2021/07/29 13:22:03;;;;;;;;;;;19.00;84.70;;;;;;4361566;32;44097;-92
2021/07/29 13:24:32;;;;;;;;;;;19.00;84.40;;;;;;4361428;32;45758;-89
2021/07/29 13:26:59;;;;;;;;;;;19.00;84.20;;;;;;4362108;32;44907;-90
2021/07/29 13:29:29;;;;;;;;;;;19.10;83.80;;;;;;4348950;32;43926;-94
2021/07/29 13:32:03;;;;;;;;;;;19.10;84.60;;;;;;4361437;32;44159;-90
2021/07/29 13:34:33;;;;;;;;;;;19.10;84.80;;;;;;4361213;32;43892;-89
2021/07/29 13:37:03;;;;;;;;;;;19.20;84.70;;;;;;4349933;32;20005;-86
2021/07/29 13:39:30;;;;;;;;;;;19.20;84.30;;;;;;4360751;32;45737;-95
2021/07/29 13:42:01;;;;;;;;;;;19.20;84.60;;;;;;4361063;32;44377;-83
2021/07/29 13:44:31;;;;;;;;;;;19.20;84.30;;;;;;4361035;32;46008;-89
2021/07/29 13:47:00;;;;;;;;;;;19.30;83.90;;;;;;4362729;32;43369;-87
2021/07/29 13:49:33;;;;;;;;;;;19.30;84.10;;;;;;4360434;32;45755;-92
2021/07/29 13:52:09;;;;;;;;;;;19.30;84.10;;;;;;4360993;32;43691;-89
2021/07/29 13:54:36;;;;;;;;;;;19.40;83.80;;;;;;4362821;32;43872;-91
2021/07/29 13:57:03;;;;;;;;;;;19.40;83.90;;;;;;4361183;32;44390;-92
2021/07/29 13:59:31;;;;;;;;;;;19.40;84.20;;;;;;4361217;32;44717;-87
2021/07/29 14:02:03;;;;;;;;;;;19.40;83.70;;;;;;4348395;32;43918;-92
2021/07/29 14:04:41;;;;;;;;;;;19.50;84.00;;;;;;4360981;32;45967;-87
2021/07/29 14:07:11;;;;;;;;;;;19.50;83.30;;;;;;4349719;32;20046;-87
2021/07/29 14:09:39;;;;;;;;;;;19.50;83.60;;;;;;4361444;32;44125;-89
2021/07/29 14:12:13;;;;;;;;;;;19.60;83.90;;;;;;4348145;32;45964;-92
2021/07/29 14:14:43;;;;;;;;;;;19.60;83.70;;;;;;4361147;32;44825;-93
2021/07/29 14:18:03;;;;;;;;;;;19.60;83.30;;;;;;4349456;32;44544;-92
2021/07/29 14:20:26;;;;;;;;;;;19.60;83.60;;;;;;4354209;32;44336;-91
2021/07/29 14:22:59;;;;;;;;;;;19.60;83.60;;;;;;4361280;32;43422;-91
2021/07/29 14:25:31;;;;;;;;;;;19.60;83.30;;;;;;4361289;32;45709;-91
2021/07/29 14:28:04;;;;;;;;;;;19.60;83.20;;;;;;4348514;32;45072;-92
2021/07/29 14:30:31;;;;;;;;;;;19.60;83.60;;;;;;4361128;32;42891;-90
2021/07/29 14:32:58;;;;;;;;;;;19.60;83.80;;;;;;4349103;32;44014;-94
2021/07/29 14:35:31;;;;;;;;;;;19.60;83.70;;;;;;4360878;32;45067;-90
2021/07/29 14:38:06;;;;;;;;;;;19.60;84.00;;;;;;4361297;32;20036;-90